Time;durP1;ratioP1;P1;durP2;ratioP2;P2;SDS_P1;SDS_P2;PMS_P1;PMS_P2;Temp;Humidity;BMP_temperature;BMP_pressure;BME280_temperature;BME280_humidity;BME280_pressure;Samples;Min_cycle;Max_cycle;Signal;HPM_P1;HPM_P2
2023/09/20 00:02:12;;;;;;;5.33;1.93;;;18.70;99.90;;;;;;5063764;28;20475;-85
2023/09/20 00:04:38;;;;;;;9.10;2.00;;;18.70;99.90;;;;;;5074210;28;20423;-83
2023/09/20 00:07:07;;;;;;;4.20;1.77;;;18.70;99.90;;;;;;5068948;28;20469;-83
2023/09/20 00:09:33;;;;;;;4.67;2.10;;;18.70;99.90;;;;;;5082940;28;20208;-83
2023/09/20 00:11:59;;;;;;;7.53;2.30;;;18.70;99.90;;;;;;5073048;28;20447;-83
2023/09/20 00:14:25;;;;;;;5.70;2.50;;;18.70;99.90;;;;;;5071077;28;20431;-83
2023/09/20 00:16:52;;;;;;;4.80;1.97;;;18.60;1.00;;;;;;5071666;28;20189;-84
2023/09/20 00:19:18;;;;;;;5.20;2.23;;;18.60;1.00;;;;;;5086652;28;20448;-83
2023/09/20 00:21:45;;;;;;;4.23;1.90;;;18.60;1.00;;;;;;5070715;28;20455;-83
2023/09/20 00:24:11;;;;;;;4.63;1.97;;;18.60;1.00;;;;;;5068007;28;20853;-83
2023/09/20 00:26:40;;;;;;;5.43;2.60;;;18.60;1.00;;;;;;5060244;28;20456;-84
2023/09/20 00:29:05;;;;;;;4.47;1.70;;;18.60;1.00;;;;;;5057200;28;20186;-83
2023/09/20 00:31:32;;;;;;;8.47;2.80;;;18.70;1.00;;;;;;5065971;28;20535;-83
2023/09/20 00:33:58;;;;;;;4.10;2.00;;;18.60;1.00;;;;;;5077127;28;20181;-84
2023/09/20 00:36:24;;;;;;;6.13;2.53;;;18.50;1.00;;;;;;5069400;28;20436;-83
2023/09/20 00:38:52;;;;;;;5.73;2.50;;;18.50;1.00;;;;;;5060678;28;20822;-83
2023/09/20 00:41:18;;;;;;;6.67;2.83;;;18.50;1.00;;;;;;5068942;28;20193;-83
2023/09/20 00:43:44;;;;;;;5.83;2.13;;;18.50;1.00;;;;;;5053279;28;20443;-85
2023/09/20 00:46:11;;;;;;;5.47;1.97;;;18.50;1.00;;;;;;5069398;28;20502;-83
2023/09/20 00:48:40;;;;;;;9.83;2.20;;;18.50;1.00;;;;;;5068078;28;20836;-83
2023/09/20 00:51:06;;;;;;;5.43;2.20;;;18.50;1.00;;;;;;5063475;28;20448;-83
2023/09/20 00:53:34;;;;;;;4.93;2.30;;;18.50;1.00;;;;;;5066428;28;20427;-81
2023/09/20 00:56:02;;;;;;;4.30;2.60;;;18.50;1.00;;;;;;5057018;28;20966;-84
2023/09/20 00:58:29;;;;;;;2.73;1.67;;;18.50;1.00;;;;;;5061884;28;20526;-84
2023/09/20 01:00:55;;;;;;;5.10;1.80;;;18.50;1.00;;;;;;5072698;28;20494;-83
2023/09/20 01:03:22;;;;;;;6.43;2.33;;;18.40;15.00;;;;;;5067481;28;20439;-83
2023/09/20 01:05:48;;;;;;;4.60;2.40;;;18.50;19.30;;;;;;5070329;28;20205;-83
2023/09/20 01:08:17;;;;;;;3.50;1.80;;;18.40;41.50;;;;;;5067620;28;20823;-83
2023/09/20 01:10:45;;;;;;;4.63;2.00;;;18.50;49.50;;;;;;5071582;28;20431;-83
2023/09/20 01:13:12;;;;;;;6.43;2.10;;;18.40;55.70;;;;;;5068953;28;20450;-83
2023/09/20 01:15:38;;;;;;;5.77;1.97;;;18.40;99.90;;;;;;5069222;28;20489;-83
2023/09/20 01:18:04;;;;;;;4.40;2.13;;;18.40;99.70;;;;;;5070969;28;20968;-82
2023/09/20 01:20:40;;;;;;;7.67;2.57;;;18.40;99.90;;;;;;5071349;28;20436;-84
2023/09/20 01:23:06;;;;;;;9.23;2.40;;;18.50;99.90;;;;;;5063765;28;20436;-84
2023/09/20 01:25:38;;;;;;;4.67;2.07;;;18.50;99.90;;;;;;5070729;28;20468;-83
2023/09/20 01:28:08;;;;;;;7.43;2.30;;;18.40;99.90;;;;;;5068749;28;20249;-83
2023/09/20 01:30:37;;;;;;;9.80;2.40;;;18.40;99.90;;;;;;5064864;28;20887;-81
2023/09/20 01:33:05;;;;;;;5.33;2.20;;;18.50;99.90;;;;;;5063559;28;20455;-84
2023/09/20 01:35:31;;;;;;;7.57;2.33;;;18.40;99.90;;;;;;5072241;28;20443;-83
2023/09/20 01:38:04;;;;;;;6.80;2.70;;;18.50;99.90;;;;;;5071336;28;20442;-83
2023/09/20 01:40:33;;;;;;;6.43;2.53;;;18.40;99.90;;;;;;5063939;28;20436;-83
2023/09/20 01:42:59;;;;;;;9.60;2.37;;;18.40;99.90;;;;;;5070824;28;20462;-84
2023/09/20 01:45:26;;;;;;;6.80;2.20;;;18.40;99.90;;;;;;5056452;28;20498;-83
2023/09/20 01:47:54;;;;;;;5.07;2.30;;;18.40;99.90;;;;;;5062529;28;20459;-84
2023/09/20 01:50:24;;;;;;;5.23;2.60;;;18.40;99.90;;;;;;5065334;28;20431;-82
2023/09/20 01:52:51;;;;;;;5.50;2.30;;;18.40;99.90;;;;;;5063937;28;20452;-82
2023/09/20 01:55:20;;;;;;;3.70;2.03;;;18.40;99.90;;;;;;5066379;28;20199;-84
2023/09/20 01:57:48;;;;;;;4.13;2.27;;;18.50;99.90;;;;;;5071053;28;20529;-83
2023/09/20 02:00:36;;;;;;;10.67;2.60;;;18.40;99.90;;;;;;5072325;28;20442;-83
2023/09/20 02:03:16;;;;;;;4.73;1.80;;;18.40;99.90;;;;;;5067611;28;20459;-84
2023/09/20 02:05:44;;;;;;;7.20;2.40;;;18.40;99.90;;;;;;5067381;28;20490;-85
2023/09/20 02:08:09;;;;;;;7.90;2.10;;;18.30;99.90;;;;;;5072708;28;20439;-82
2023/09/20 02:10:36;;;;;;;4.07;2.40;;;18.30;99.90;;;;;;5066446;28;20427;-84
2023/09/20 02:13:03;;;;;;;8.32;2.13;;;18.30;99.90;;;;;;5072394;28;20462;-83
2023/09/20 02:15:31;;;;;;;4.60;2.07;;;18.30;99.90;;;;;;5069781;28;20181;-83
2023/09/20 02:17:57;;;;;;;5.20;2.20;;;18.40;99.90;;;;;;5068439;28;20998;-83
2023/09/20 02:20:25;;;;;;;4.40;1.77;;;18.40;99.90;;;;;;5060842;28;20428;-83
2023/09/20 02:22:55;;;;;;;4.97;2.30;;;18.30;99.90;;;;;;5066903;28;20217;-84
2023/09/20 02:25:22;;;;;;;6.07;2.60;;;18.30;1.00;;;;;;5072480;28;20463;-82
2023/09/20 02:27:52;;;;;;;7.83;2.77;;;18.20;1.00;;;;;;5068798;28;20432;-83
2023/09/20 02:30:24;;;;;;;4.93;2.13;;;18.30;1.00;;;;;;5065612;28;20956;-85
2023/09/20 02:32:57;;;;;;;3.37;2.07;;;18.20;1.00;;;;;;5065873;28;20454;-83
2023/09/20 02:35:24;;;;;;;8.43;1.87;;;18.20;1.00;;;;;;5065290;28;20435;-82
2023/09/20 02:37:51;;;;;;;4.60;1.63;;;18.20;1.00;;;;;;5067986;28;20929;-83
2023/09/20 02:40:26;;;;;;;3.17;2.00;;;18.20;1.00;;;;;;5087017;28;20435;-84
2023/09/20 02:42:54;;;;;;;4.50;2.17;;;18.20;1.00;;;;;;5070823;28;20459;-83
2023/09/20 02:45:20;;;;;;;4.17;2.40;;;18.30;1.00;;;;;;5076284;28;20464;-83
2023/09/20 02:47:47;;;;;;;7.67;2.43;;;18.20;1.00;;;;;;5073934;28;20489;-83
2023/09/20 02:50:16;;;;;;;5.93;2.10;;;18.20;30.60;;;;;;5073454;28;20526;-83
2023/09/20 02:52:44;;;;;;;4.10;2.13;;;18.20;99.90;;;;;;5089928;28;20447;-83
2023/09/20 02:55:12;;;;;;;3.40;1.90;;;18.10;99.90;;;;;;5070111;28;20518;-83
2023/09/20 02:57:39;;;;;;;4.15;2.00;;;18.10;99.90;;;;;;5063368;28;20226;-82
2023/09/20 03:00:16;;;;;;;5.33;2.07;;;18.20;99.90;;;;;;5067666;28;20177;-83
2023/09/20 03:02:45;;;;;;;6.73;2.20;;;18.20;99.90;;;;;;5082281;28;20473;-83
2023/09/20 03:05:16;;;;;;;8.10;1.80;;;18.20;99.90;;;;;;5078108;28;20432;-83
2023/09/20 03:07:46;;;;;;;5.87;2.93;;;18.10;99.90;;;;;;5073354;28;20435;-83
2023/09/20 03:10:16;;;;;;;4.53;2.00;;;18.10;1.00;;;;;;5064238;28;20439;-83
2023/09/20 03:12:46;;;;;;;8.43;3.03;;;18.10;1.00;;;;;;5065588;28;20452;-83
2023/09/20 03:15:16;;;;;;;7.70;2.47;;;18.10;1.00;;;;;;5072516;28;20535;-83
2023/09/20 03:17:43;;;;;;;4.10;1.93;;;18.00;61.70;;;;;;5070580;28;20481;-83
2023/09/20 03:20:16;;;;;;;3.10;2.07;;;18.00;99.90;;;;;;5073362;28;20871;-83
2023/09/20 03:22:42;;;;;;;5.20;1.83;;;18.00;99.90;;;;;;5071986;28;20450;-83
2023/09/20 03:25:14;;;;;;;7.40;2.20;;;18.00;1.00;;;;;;5067233;28;20437;-83
2023/09/20 03:27:43;;;;;;;7.10;2.10;;;18.00;1.00;;;;;;5065361;28;20529;-83
2023/09/20 03:30:11;;;;;;;6.10;2.20;;;17.90;1.00;;;;;;5058107;28;20448;-83
2023/09/20 03:32:40;;;;;;;6.13;2.50;;;17.90;1.00;;;;;;5063925;28;20455;-84
2023/09/20 03:35:07;;;;;;;4.83;2.17;;;17.90;1.00;;;;;;5075945;28;20488;-84
2023/09/20 03:37:33;;;;;;;7.10;2.10;;;17.90;99.90;;;;;;5070300;28;20427;-83
2023/09/20 03:39:59;;;;;;;6.20;2.37;;;17.80;99.90;;;;;;5065582;28;20488;-84
2023/09/20 03:42:24;;;;;;;5.00;2.20;;;17.90;1.00;;;;;;5072679;28;20461;-84
2023/09/20 03:44:50;;;;;;;3.10;2.17;;;17.80;1.00;;;;;;5064292;28;20284;-83
2023/09/20 03:47:16;;;;;;;6.40;1.87;;;17.80;1.00;;;;;;5071380;28;20739;-84
2023/09/20 03:49:42;;;;;;;7.80;2.70;;;17.80;99.90;;;;;;5068313;28;20182;-83
2023/09/20 03:52:08;;;;;;;7.73;2.53;;;17.80;99.90;;;;;;5063985;28;20467;-83
2023/09/20 03:54:33;;;;;;;4.90;2.30;;;17.90;99.90;;;;;;5061442;28;20436;-83
2023/09/20 03:56:59;;;;;;;4.93;2.80;;;17.80;99.90;;;;;;5057549;28;20192;-83
2023/09/20 03:59:31;;;;;;;3.43;2.20;;;17.80;99.90;;;;;;5069146;28;20188;-83
2023/09/20 04:01:56;;;;;;;5.97;2.23;;;17.80;99.90;;;;;;5071273;28;20205;-83
2023/09/20 04:04:22;;;;;;;6.80;2.17;;;17.80;99.90;;;;;;5072483;28;20440;-82
2023/09/20 04:06:47;;;;;;;4.60;2.47;;;17.80;1.00;;;;;;5071270;28;20208;-83
2023/09/20 04:09:13;;;;;;;5.63;2.00;;;17.80;99.90;;;;;;5070664;28;20196;-84
2023/09/20 04:11:40;;;;;;;6.33;2.97;;;17.80;1.00;;;;;;5054887;28;20201;-84
2023/09/20 04:14:09;;;;;;;3.13;1.90;;;17.80;99.90;;;;;;5084335;28;20248;-83
2023/09/20 04:16:39;;;;;;;7.17;2.50;;;17.80;99.90;;;;;;5066698;28;20442;-83
2023/09/20 04:19:05;;;;;;;5.10;1.97;;;17.80;99.90;;;;;;5061739;28;21023;-84
2023/09/20 04:21:31;;;;;;;3.87;2.53;;;17.70;99.90;;;;;;5070405;28;20546;-83
2023/09/20 04:23:58;;;;;;;5.80;2.50;;;17.70;99.90;;;;;;5068901;28;20870;-83
2023/09/20 04:26:24;;;;;;;4.93;2.30;;;17.70;99.90;;;;;;5073090;28;20209;-84
2023/09/20 04:28:50;;;;;;;8.47;2.57;;;17.70;99.90;;;;;;5069062;28;21073;-83
2023/09/20 04:31:16;;;;;;;5.73;2.30;;;17.70;99.90;;;;;;5068443;28;20233;-84
2023/09/20 04:33:41;;;;;;;4.43;2.50;;;17.70;99.90;;;;;;5070312;28;20234;-83
2023/09/20 04:36:07;;;;;;;4.33;2.33;;;17.70;99.90;;;;;;5046330;28;20198;-83
2023/09/20 04:38:32;;;;;;;5.50;3.17;;;17.70;1.00;;;;;;5070688;28;20189;-84
2023/09/20 04:40:59;;;;;;;6.40;2.70;;;17.70;1.00;;;;;;5087598;28;20209;-83
2023/09/20 04:43:28;;;;;;;3.13;2.80;;;17.70;1.00;;;;;;5069362;28;20181;-84
2023/09/20 04:45:55;;;;;;;11.00;2.90;;;17.60;1.00;;;;;;5069120;28;20516;-83
2023/09/20 04:48:21;;;;;;;4.83;1.90;;;17.60;1.00;;;;;;5066576;28;20444;-83
2023/09/20 04:50:49;;;;;;;6.00;2.83;;;17.50;1.00;;;;;;5063992;28;20500;-83
2023/09/20 04:53:16;;;;;;;7.33;2.07;;;17.50;1.00;;;;;;5071447;28;20196;-82
2023/09/20 04:55:41;;;;;;;5.87;2.70;;;17.50;1.00;;;;;;5067009;28;20493;-83
2023/09/20 04:58:07;;;;;;;9.90;3.37;;;17.60;1.00;;;;;;5062860;28;20949;-83
2023/09/20 05:00:37;;;;;;;4.30;2.30;;;17.50;1.00;;;;;;5061136;28;20295;-85
2023/09/20 05:03:03;;;;;;;6.13;2.40;;;17.50;1.00;;;;;;5067665;28;21122;-83
2023/09/20 05:05:29;;;;;;;8.50;3.67;;;17.50;1.00;;;;;;5073399;28;20459;-83
2023/09/20 05:07:54;;;;;;;4.93;2.80;;;17.50;1.00;;;;;;5069098;28;20447;-84
2023/09/20 05:10:20;;;;;;;10.70;2.83;;;17.60;1.00;;;;;;5068751;28;20185;-84
2023/09/20 05:12:48;;;;;;;5.00;2.40;;;17.60;1.00;;;;;;5060375;28;20225;-80
2023/09/20 05:15:15;;;;;;;8.43;2.93;;;17.50;1.00;;;;;;5056840;28;20262;-83
2023/09/20 05:17:43;;;;;;;4.63;2.77;;;17.50;1.00;;;;;;5084411;28;20816;-83
2023/09/20 05:20:11;;;;;;;7.70;2.60;;;17.70;1.00;;;;;;5071423;28;20430;-83
2023/09/20 05:22:37;;;;;;;4.57;3.13;;;17.50;1.00;;;;;;5068994;28;20479;-85
2023/09/20 05:25:03;;;;;;;4.37;2.37;;;17.60;1.00;;;;;;5081199;28;20467;-84
2023/09/20 05:27:29;;;;;;;5.07;2.83;;;17.60;1.00;;;;;;5069619;28;20217;-83
2023/09/20 05:29:56;;;;;;;5.50;2.60;;;17.50;1.00;;;;;;5054003;28;20539;-83
2023/09/20 05:32:22;;;;;;;4.20;2.50;;;17.60;1.00;;;;;;5066196;28;20558;-83
2023/09/20 05:34:47;;;;;;;10.40;2.90;;;17.50;1.00;;;;;;5071417;28;20272;-82
2023/09/20 05:37:13;;;;;;;5.00;2.30;;;17.50;1.00;;;;;;5076023;28;20191;-83
2023/09/20 05:40:23;;;;;;;9.90;2.73;;;17.50;1.00;;;;;;5090107;28;20484;-84
2023/09/20 05:42:52;;;;;;;2.70;2.10;;;17.60;1.00;;;;;;5073871;28;20208;-84
2023/09/20 05:45:19;;;;;;;4.47;3.00;;;17.80;99.90;;;;;;5071809;28;20977;-82
2023/09/20 05:47:45;;;;;;;2.90;2.30;;;17.80;99.90;;;;;;5075092;28;20438;-83
2023/09/20 05:50:12;;;;;;;2.67;2.00;;;17.90;1.00;;;;;;5068732;28;21019;-83
2023/09/20 05:52:45;;;;;;;7.97;3.47;;;18.00;99.90;;;;;;5072715;28;20193;-83
2023/09/20 05:55:13;;;;;;;3.93;2.13;;;18.40;1.00;;;;;;5063173;28;20431;-83
2023/09/20 05:57:41;;;;;;;7.57;2.20;;;18.90;99.90;;;;;;5060462;28;20436;-83
2023/09/20 06:00:16;;;;;;;3.50;2.57;;;19.40;21.70;;;;;;5077260;28;20867;-84
2023/09/20 06:02:43;;;;;;;8.03;2.70;;;19.80;99.90;;;;;;5089375;28;20464;-83
2023/09/20 06:05:11;;;;;;;4.30;2.23;;;20.50;1.00;;;;;;5065200;28;20520;-81
2023/09/20 06:07:37;;;;;;;4.50;2.27;;;21.30;99.90;;;;;;5070792;28;20929;-84
2023/09/20 06:10:04;;;;;;;11.77;2.50;;;21.70;99.90;;;;;;5071609;28;20441;-83
2023/09/20 06:12:30;;;;;;;4.47;2.27;;;22.20;99.90;;;;;;5088265;28;20258;-84
2023/09/20 06:14:55;;;;;;;5.30;1.90;;;22.60;16.80;;;;;;5074567;28;20431;-84
2023/09/20 06:17:21;;;;;;;6.57;2.20;;;22.60;1.00;;;;;;5075821;28;20322;-83
2023/09/20 06:19:48;;;;;;;2.43;1.70;;;22.70;1.00;;;;;;5076190;28;20615;-83
2023/09/20 06:22:15;;;;;;;7.40;2.60;;;22.80;1.00;;;;;;5075694;28;20963;-83
2023/09/20 06:24:44;;;;;;;7.03;2.33;;;24.00;1.00;;;;;;5082522;28;20435;-83
2023/09/20 06:27:09;;;;;;;5.10;2.20;;;26.40;1.00;;;;;;5075140;28;20467;-83
2023/09/20 06:29:35;;;;;;;3.67;1.93;;;27.60;1.00;;;;;;5068984;28;20897;-83
2023/09/20 06:32:04;;;;;;;4.63;1.83;;;27.30;1.00;;;;;;5076481;28;20694;-83
2023/09/20 06:34:30;;;;;;;4.03;2.00;;;27.20;1.00;;;;;;5074441;28;20204;-84
2023/09/20 06:36:56;;;;;;;2.90;2.10;;;27.60;1.00;;;;;;5074340;28;21005;-84
2023/09/20 06:39:22;;;;;;;3.80;2.20;;;29.70;1.00;;;;;;5076715;28;20191;-83
2023/09/20 06:41:49;;;;;;;2.43;1.60;;;32.20;1.00;;;;;;5087103;28;20260;-82
2023/09/20 06:44:14;;;;;;;3.27;1.63;;;32.10;1.00;;;;;;5065166;28;20183;-82
2023/09/20 06:46:42;;;;;;;3.60;1.77;;;32.00;1.00;;;;;;5075797;28;21180;-82
2023/09/20 06:49:08;;;;;;;4.60;1.73;;;32.20;1.00;;;;;;5077428;28;20187;-81
2023/09/20 06:51:34;;;;;;;6.90;1.53;;;32.40;1.00;;;;;;5081201;28;20452;-82
2023/09/20 06:54:00;;;;;;;3.50;1.70;;;32.50;1.00;;;;;;5069847;28;20509;-82
2023/09/20 06:56:25;;;;;;;3.97;1.63;;;32.70;1.00;;;;;;5077979;28;20447;-81
2023/09/20 06:58:53;;;;;;;2.80;1.47;;;32.70;1.00;;;;;;5074311;28;20181;-78
2023/09/20 07:01:19;;;;;;;5.17;1.60;;;33.50;1.00;;;;;;5073089;28;20332;-81
2023/09/20 07:03:47;;;;;;;2.80;1.50;;;33.80;1.00;;;;;;5074983;28;20518;-81
2023/09/20 07:06:13;;;;;;;3.60;1.90;;;33.20;1.00;;;;;;5069452;28;20177;-81
2023/09/20 07:08:42;;;;;;;2.50;1.40;;;34.20;1.00;;;;;;5069676;28;20434;-82
2023/09/20 07:11:07;;;;;;;4.70;1.83;;;34.60;1.00;;;;;;5071597;28;20193;-80
2023/09/20 07:13:33;;;;;;;3.50;1.43;;;34.60;1.00;;;;;;5070537;28;20457;-82
2023/09/20 07:16:04;;;;;;;2.13;1.37;;;;;;;;;;5071176;28;20209;-83
2023/09/20 07:18:30;;;;;;;3.73;1.80;;;37.80;1.00;;;;;;5071144;28;20832;-82
2023/09/20 07:20:55;;;;;;;3.97;1.73;;;37.90;1.00;;;;;;5061810;28;20447;-82
2023/09/20 07:23:21;;;;;;;3.73;1.80;;;37.00;1.00;;;;;;5071438;28;20185;-82
2023/09/20 07:25:49;;;;;;;5.90;1.53;;;35.10;1.00;;;;;;5070777;28;20192;-82
2023/09/20 07:28:16;;;;;;;2.40;1.50;;;32.90;1.00;;;;;;5055436;28;20189;-82
2023/09/20 07:30:45;;;;;;;3.10;1.50;;;32.00;1.00;;;;;;5072382;28;20459;-82
2023/09/20 07:33:13;;;;;;;2.60;1.80;;;32.00;1.00;;;;;;5077143;28;20431;-83
2023/09/20 07:35:46;;;;;;;5.13;1.80;;;;;;;;;;5072783;28;20452;-82
2023/09/20 07:38:18;;;;;;;2.87;1.37;;;;;;;;;;5073632;28;20816;-83
2023/09/20 07:40:44;;;;;;;2.37;1.60;;;40.30;1.00;;;;;;5070801;28;20435;-83
2023/09/20 07:43:10;;;;;;;5.93;1.80;;;40.50;1.00;;;;;;5068840;28;20428;-83
2023/09/20 07:45:39;;;;;;;3.23;1.73;;;40.20;1.00;;;;;;5072243;28;20221;-83
2023/09/20 07:48:13;;;;;;;3.30;1.67;;;40.10;1.00;;;;;;5081889;28;20427;-83
2023/09/20 07:50:49;;;;;;;1.70;1.30;;;38.80;1.00;;;;;;5079568;28;20860;-83
2023/09/20 07:53:15;;;;;;;2.43;1.67;;;38.10;1.00;;;;;;5076719;28;20783;-83
2023/09/20 07:55:46;;;;;;;4.13;1.40;;;39.40;1.00;;;;;;5070788;28;20469;-83
2023/09/20 07:58:15;;;;;;;2.20;1.23;;;42.10;1.00;;;;;;5077099;28;20427;-83
2023/09/20 08:00:45;;;;;;;1.60;1.20;;;44.40;1.00;;;;;;5076455;28;20420;-83
2023/09/20 08:03:14;;;;;;;2.60;1.20;;;42.60;1.00;;;;;;5078221;28;20443;-83
2023/09/20 08:05:41;;;;;;;2.40;1.40;;;39.90;1.00;;;;;;5076166;28;20469;-83
2023/09/20 08:08:10;;;;;;;2.83;1.90;;;37.90;1.00;;;;;;5075706;28;20426;-83
2023/09/20 08:10:37;;;;;;;3.00;1.67;;;35.80;1.00;;;;;;5074343;28;20431;-83
2023/09/20 08:13:06;;;;;;;2.87;1.63;;;34.90;1.00;;;;;;5071649;28;20464;-83
2023/09/20 08:15:42;;;;;;;1.97;1.27;;;33.60;99.90;;;;;;5073473;28;20845;-83
2023/09/20 08:20:53;;;;;;;2.80;1.87;;;31.80;99.90;;;;;;5072372;28;20478;-83
2023/09/20 09:01:48;;;;;;;3.60;1.30;;;44.00;99.90;;;;;;5071901;28;20520;-81
2023/09/20 09:04:17;;;;;;;2.43;1.10;;;42.60;99.90;;;;;;5074492;28;20912;-82
2023/09/20 09:06:43;;;;;;;1.87;1.03;;;42.30;99.90;;;;;;5076785;28;20415;-82
2023/09/20 09:09:10;;;;;;;5.80;1.20;;;41.70;99.90;;;;;;5074910;28;20522;-83
2023/09/20 09:11:36;;;;;;;2.80;1.23;;;42.30;99.90;;;;;;5074883;28;20468;-83
2023/09/20 09:14:03;;;;;;;2.13;1.17;;;42.30;99.90;;;;;;5091700;28;20442;-84
2023/09/20 09:16:33;;;;;;;3.43;1.33;;;42.50;99.90;;;;;;5077563;28;20212;-80
2023/09/20 09:18:59;;;;;;;3.57;1.10;;;42.90;99.90;;;;;;5077209;28;20881;-81
2023/09/20 09:21:26;;;;;;;2.37;0.97;;;43.00;99.90;;;;;;5070635;28;20555;-84
2023/09/20 09:23:52;;;;;;;1.93;0.70;;;43.20;99.90;;;;;;5076736;28;20419;-84
2023/09/20 09:26:18;;;;;;;2.20;1.10;;;41.80;99.90;;;;;;5077267;28;20814;-83
2023/09/20 09:28:47;;;;;;;3.77;1.33;;;40.40;99.90;;;;;;5073475;28;20186;-82
2023/09/20 09:31:16;;;;;;;2.50;1.20;;;39.40;99.90;;;;;;5074594;28;20201;-83
2023/09/20 09:33:42;;;;;;;1.87;1.20;;;39.10;99.90;;;;;;5079293;28;20461;-82
2023/09/20 09:36:10;;;;;;;2.67;0.90;;;39.60;99.90;;;;;;5072328;28;20992;-83
2023/09/20 09:38:35;;;;;;;1.93;1.13;;;39.50;99.90;;;;;;5070630;28;20486;-83
2023/09/20 09:41:02;;;;;;;2.53;1.20;;;38.70;99.90;;;;;;5074006;28;20458;-81
2023/09/20 09:43:29;;;;;;;4.83;1.50;;;38.90;99.90;;;;;;5071271;28;20186;-83
2023/09/20 09:46:04;;;;;;;3.87;1.20;;;39.70;99.90;;;;;;5074289;28;20785;-82
2023/09/20 09:48:34;;;;;;;2.80;1.07;;;40.30;99.90;;;;;;5075216;28;20408;-80
2023/09/20 09:51:00;;;;;;;3.83;1.30;;;38.70;99.90;;;;;;5073014;28;20512;-82
2023/09/20 09:53:34;;;;;;;1.93;1.00;;;38.00;99.90;;;;;;5069860;28;20431;-81
2023/09/20 09:56:03;;;;;;;3.00;1.10;;;36.70;99.90;;;;;;5067961;28;20234;-82
2023/09/20 09:58:29;;;;;;;4.13;1.40;;;35.30;99.90;;;;;;5084978;28;20450;-82
2023/09/20 10:00:57;;;;;;;5.97;1.17;;;33.90;99.90;;;;;;5065636;28;20436;-81
2023/09/20 10:03:29;;;;;;;1.50;0.90;;;32.90;99.90;;;;;;5073015;28;20661;-81
2023/09/20 10:06:07;;;;;;;2.20;1.20;;;32.40;99.90;;;;;;5067864;28;20443;-82
2023/09/20 10:08:38;;;;;;;1.73;1.23;;;32.90;99.90;;;;;;5069151;28;20434;-81
2023/09/20 10:11:05;;;;;;;4.13;1.70;;;33.40;99.90;;;;;;5086123;28;21025;-80
2023/09/20 10:13:44;;;;;;;2.73;1.17;;;33.80;99.90;;;;;;5069835;28;20419;-82
2023/09/20 10:16:17;;;;;;;2.30;1.10;;;33.20;99.90;;;;;;5073782;28;20541;-82
2023/09/20 10:19:01;;;;;;;2.87;1.20;;;33.60;99.90;;;;;;5071904;28;20442;-82
2023/09/20 10:21:30;;;;;;;2.13;1.10;;;34.70;99.90;;;;;;5091899;28;20462;-82
2023/09/20 10:24:02;;;;;;;2.43;1.30;;;35.90;1.00;;;;;;5073161;28;20471;-82
2023/09/20 10:26:33;;;;;;;3.10;1.00;;;36.30;1.00;;;;;;5071249;28;20494;-82
2023/09/20 10:29:23;;;;;;;2.40;1.00;;;35.90;99.90;;;;;;5074434;28;20419;-82
2023/09/20 10:31:52;;;;;;;4.20;1.20;;;35.90;99.90;;;;;;5073322;28;20455;-82
2023/09/20 10:34:19;;;;;;;2.90;1.00;;;35.70;99.90;;;;;;5092514;28;20509;-81
2023/09/20 10:36:52;;;;;;;1.60;1.03;;;34.80;99.90;;;;;;5074307;28;20903;-83
2023/09/20 10:39:18;;;;;;;3.20;1.03;;;34.90;99.90;;;;;;5076736;28;20439;-82
2023/09/20 10:41:49;;;;;;;2.40;1.03;;;35.10;99.90;;;;;;5074319;28;20519;-83
2023/09/20 10:44:32;;;;;;;2.47;1.10;;;34.90;99.90;;;;;;5077483;28;20192;-82
2023/09/20 10:46:59;;;;;;;2.43;1.17;;;34.40;99.90;;;;;;5076981;28;20443;-83
2023/09/20 10:49:40;;;;;;;3.47;1.37;;;33.80;99.90;;;;;;5076296;28;20520;-82
2023/09/20 10:52:06;;;;;;;3.57;1.40;;;33.20;99.90;;;;;;5075149;28;20443;-83
2023/09/20 10:54:36;;;;;;;2.07;0.97;;;33.30;99.90;;;;;;5076784;28;21012;-82
2023/09/20 10:57:05;;;;;;;4.07;1.13;;;33.40;99.90;;;;;;5075747;28;20709;-83
2023/09/20 10:59:31;;;;;;;2.70;1.10;;;33.50;99.90;;;;;;5074081;28;20459;-83
2023/09/20 11:01:59;;;;;;;1.53;0.83;;;32.90;99.90;;;;;;5071883;28;21207;-83
2023/09/20 11:04:25;;;;;;;3.20;1.50;;;32.20;99.90;;;;;;5076385;28;20433;-83
2023/09/20 11:06:52;;;;;;;2.93;1.50;;;31.50;99.90;;;;;;5068318;28;20525;-82
2023/09/20 11:09:20;;;;;;;3.70;1.23;;;30.80;99.90;;;;;;5089952;28;20195;-83
2023/09/20 11:11:47;;;;;;;5.43;1.47;;;30.20;99.90;;;;;;5074778;28;21006;-83
2023/09/20 11:14:12;;;;;;;2.70;1.00;;;29.70;99.90;;;;;;5067801;28;20457;-83
2023/09/20 11:16:41;;;;;;;2.40;1.20;;;29.50;99.90;;;;;;5069108;28;20484;-82
2023/09/20 11:19:11;;;;;;;5.70;1.23;;;29.40;99.90;;;;;;5072050;28;20231;-82
2023/09/20 11:21:38;;;;;;;4.53;1.53;;;29.40;99.90;;;;;;5075324;28;20544;-82
2023/09/20 11:24:06;;;;;;;2.30;1.40;;;29.80;99.90;;;;;;5073912;28;20460;-83
2023/09/20 11:26:31;;;;;;;3.73;1.20;;;30.40;99.90;;;;;;5072109;28;21191;-82
2023/09/20 11:28:57;;;;;;;2.90;1.10;;;30.80;99.90;;;;;;5072571;28;20438;-82
2023/09/20 11:31:30;;;;;;;5.33;1.20;;;31.70;99.90;;;;;;5069373;28;20211;-82
2023/09/20 11:34:00;;;;;;;2.37;1.13;;;32.30;1.00;;;;;;5070050;28;20189;-81
2023/09/20 11:36:26;;;;;;;2.77;1.00;;;32.40;99.90;;;;;;5072210;28;20467;-82
2023/09/20 11:38:53;;;;;;;2.37;1.50;;;33.30;1.00;;;;;;5072912;28;20442;-81
2023/09/20 11:41:21;;;;;;;2.33;1.30;;;33.40;1.00;;;;;;5072040;28;21011;-83
2023/09/20 11:43:47;;;;;;;3.00;1.40;;;33.10;99.90;;;;;;5072109;28;20438;-83
2023/09/20 11:46:13;;;;;;;5.20;1.50;;;33.20;99.90;;;;;;5072226;28;20769;-83
2023/09/20 11:48:38;;;;;;;3.83;1.83;;;34.20;1.00;;;;;;5087088;28;20547;-82
2023/09/20 11:51:07;;;;;;;4.80;1.23;;;34.80;1.00;;;;;;5071505;28;20205;-82
2023/09/20 11:53:33;;;;;;;1.80;1.13;;;34.70;1.00;;;;;;5072068;28;20184;-82
2023/09/20 11:56:00;;;;;;;3.40;1.27;;;34.30;99.90;;;;;;5072940;28;20205;-83
2023/09/20 11:58:33;;;;;;;1.70;1.20;;;33.90;99.90;;;;;;5070955;28;20431;-82
2023/09/20 12:00:59;;;;;;;3.87;1.03;;;34.00;99.90;;;;;;5068751;28;20445;-83
2023/09/20 12:03:24;;;;;;;3.20;1.33;;;34.10;99.90;;;;;;5074257;28;20434;-82
2023/09/20 12:05:50;;;;;;;2.43;1.10;;;34.40;1.00;;;;;;5071335;28;20190;-83
2023/09/20 12:08:15;;;;;;;2.80;1.10;;;34.70;1.00;;;;;;5070885;28;20548;-83
2023/09/20 12:10:42;;;;;;;2.30;1.20;;;35.00;1.00;;;;;;5071228;28;20561;-81
2023/09/20 12:13:07;;;;;;;2.93;1.30;;;34.80;1.00;;;;;;5074255;28;20220;-83
2023/09/20 12:15:38;;;;;;;3.77;1.30;;;34.70;99.90;;;;;;5075420;28;20497;-84
2023/09/20 12:18:04;;;;;;;3.07;1.13;;;34.40;99.90;;;;;;5062105;28;20204;-83
2023/09/20 12:20:44;;;;;;;3.37;1.33;;;33.60;99.90;;;;;;5068061;28;20434;-83
2023/09/20 12:23:12;;;;;;;4.53;1.90;;;33.00;99.90;;;;;;5075917;28;20178;-83
2023/09/20 12:25:37;;;;;;;2.63;1.30;;;32.70;99.90;;;;;;5074207;28;20449;-83
2023/09/20 12:28:04;;;;;;;2.17;1.30;;;32.50;99.90;;;;;;5073666;28;20461;-82
2023/09/20 12:30:29;;;;;;;2.77;1.60;;;32.50;99.90;;;;;;5087916;28;20205;-84
2023/09/20 12:32:56;;;;;;;3.77;1.27;;;32.50;99.90;;;;;;5072854;28;20618;-82
2023/09/20 12:35:22;;;;;;;2.47;1.20;;;32.70;99.90;;;;;;5070581;28;20189;-83
2023/09/20 12:37:47;;;;;;;2.00;1.20;;;32.70;99.90;;;;;;5086540;28;20446;-83
2023/09/20 12:40:13;;;;;;;3.27;1.40;;;32.50;99.90;;;;;;5070886;28;20185;-82
2023/09/20 12:42:38;;;;;;;2.23;1.20;;;32.70;99.90;;;;;;5069678;28;20204;-83
2023/09/20 12:45:08;;;;;;;3.03;1.20;;;32.70;99.90;;;;;;5070456;28;20285;-83
2023/09/20 12:47:34;;;;;;;6.60;1.50;;;32.50;99.90;;;;;;5070526;28;20194;-83
2023/09/20 12:50:00;;;;;;;2.60;1.50;;;32.00;99.90;;;;;;5072116;28;20433;-83
2023/09/20 12:52:26;;;;;;;3.33;1.60;;;31.70;99.90;;;;;;5072576;28;20532;-82
2023/09/20 12:54:52;;;;;;;2.43;1.40;;;31.70;99.90;;;;;;5064745;28;20437;-83
2023/09/20 12:57:18;;;;;;;2.40;1.33;;;32.10;99.90;;;;;;5071387;28;20486;-82
2023/09/20 12:59:43;;;;;;;2.10;1.30;;;32.30;99.90;;;;;;5070674;28;20553;-82
2023/09/20 13:02:09;;;;;;;2.67;1.67;;;32.90;99.90;;;;;;5069387;28;20205;-82
2023/09/20 13:04:34;;;;;;;2.83;1.23;;;32.90;99.90;;;;;;5075114;28;20176;-80
2023/09/20 13:07:00;;;;;;;1.60;1.00;;;32.40;99.90;;;;;;5070472;28;20189;-82
2023/09/20 13:09:27;;;;;;;4.60;1.40;;;31.80;99.90;;;;;;5064480;28;20275;-82
2023/09/20 13:11:52;;;;;;;1.80;1.20;;;31.40;99.90;;;;;;5070911;28;20201;-82
2023/09/20 13:14:19;;;;;;;1.70;1.30;;;31.20;99.90;;;;;;5066604;28;20448;-83
2023/09/20 13:16:49;;;;;;;3.50;1.50;;;31.10;99.90;;;;;;5069644;28;20216;-82
2023/09/20 13:19:18;;;;;;;7.50;1.70;;;31.20;99.90;;;;;;5069771;28;20440;-82
2023/09/20 13:21:44;;;;;;;2.93;1.40;;;31.40;99.90;;;;;;5070549;28;20452;-82
2023/09/20 13:24:09;;;;;;;6.30;1.63;;;31.40;99.90;;;;;;5070097;28;21015;-82
2023/09/20 13:26:37;;;;;;;2.93;1.40;;;31.50;99.90;;;;;;5070508;28;20451;-82
2023/09/20 13:29:03;;;;;;;3.70;1.50;;;31.80;99.90;;;;;;5070192;28;20180;-82
2023/09/20 13:31:28;;;;;;;3.07;1.33;;;31.80;99.90;;;;;;5066788;28;20464;-82
2023/09/20 13:33:54;;;;;;;3.20;1.47;;;32.10;99.90;;;;;;5070303;28;20237;-82
2023/09/20 13:36:20;;;;;;;4.07;1.40;;;32.10;99.90;;;;;;5070677;28;20206;-83
2023/09/20 13:38:46;;;;;;;2.30;1.43;;;32.30;99.90;;;;;;5071040;28;20167;-83